MMCN

Ciudad Obregón International Airport

Airport
ICAO code
MMCN
IATA Code
CEN
Summary
ICAO Region
CARSAM
ICAO Territory
Location

Yucuribampo, Sonora

Serving
Ciudad Obregon
Elevation
243 ft
Coordinates
27° 23' 34" N , 109° 49' 59" W
KCC
Metar
MMCN 181248Z 00000KT 10SM SKC 16/01 A2981 RMK HZY RTS

International airport located in Ciudad Obregón, Sonora, Mexico.

Climatology

Warm desert climate (Köppen climate classification BWh)

Runways

Designator Length Width Surface Rops
13/31 2300 45 ASP No/No

Airport map

Aerial View

SKYbrary Partners:

Safety knowledge contributed by: